createdAt,value
2022-09-10T00:01:31.393Z,11.90
2022-09-10T00:04:02.309Z,6.30
2022-09-10T00:06:32.594Z,7.47
2022-09-10T00:09:00.234Z,6.45
2022-09-10T00:11:32.382Z,6.90
2022-09-10T00:14:00.402Z,9.60
2022-09-10T00:16:28.463Z,10.00
2022-09-10T00:18:57.316Z,5.50
2022-09-10T00:21:24.992Z,4.57
2022-09-10T00:23:52.674Z,10.77
2022-09-10T00:26:21.927Z,8.05
2022-09-10T00:28:51.790Z,13.27
2022-09-10T00:31:21.897Z,8.10
2022-09-10T00:33:50.134Z,6.78
2022-09-10T00:36:19.474Z,6.25
2022-09-10T00:38:47.648Z,12.40
2022-09-10T00:41:15.920Z,6.47
2022-09-10T00:44:01.258Z,10.07
2022-09-10T00:46:38.866Z,9.05
2022-09-10T00:49:10.527Z,5.78
2022-09-10T00:51:38.480Z,5.88
2022-09-10T00:54:06.361Z,6.97
2022-09-10T00:56:34.945Z,10.27
2022-09-10T00:59:03.344Z,10.80
2022-09-10T01:01:31.217Z,5.60
2022-09-10T01:04:00.492Z,10.35
2022-09-10T01:06:33.157Z,8.10
2022-09-10T01:09:01.754Z,5.45
2022-09-10T01:11:39.184Z,7.43
2022-09-10T01:14:15.687Z,10.10
2022-09-10T01:16:49.382Z,6.97
2022-09-10T01:19:29.483Z,7.10
2022-09-10T01:22:04.540Z,7.68
2022-09-10T01:24:46.063Z,5.78
2022-09-10T01:27:28.647Z,7.03
2022-09-10T01:30:00.592Z,4.80
2022-09-10T01:32:30.383Z,5.07
2022-09-10T01:35:02.650Z,5.28
2022-09-10T01:37:31.100Z,7.90
2022-09-10T01:40:00.074Z,6.03
2022-09-10T01:42:29.139Z,5.13
2022-09-10T01:44:58.322Z,7.03
2022-09-10T01:47:30.000Z,7.07
2022-09-10T01:50:12.513Z,5.32
2022-09-10T01:52:44.033Z,6.68
2022-09-10T01:55:17.503Z,7.93
2022-09-10T01:57:48.892Z,12.50
2022-09-10T02:00:18.957Z,5.43
2022-09-10T02:02:49.607Z,8.15
2022-09-10T02:05:18.860Z,8.50
2022-09-10T02:07:47.982Z,6.28
2022-09-10T02:10:16.166Z,12.10
2022-09-10T02:12:47.202Z,5.90
2022-09-10T02:15:15.195Z,5.30
2022-09-10T02:17:44.485Z,7.85
2022-09-10T02:20:14.587Z,8.02
2022-09-10T02:22:46.188Z,7.13
2022-09-10T02:25:13.794Z,5.80
2022-09-10T02:27:43.533Z,10.25
2022-09-10T02:30:11.932Z,9.13
2022-09-10T02:32:39.595Z,6.70
2022-09-10T02:35:09.449Z,4.95
2022-09-10T02:37:37.864Z,5.63
2022-09-10T02:40:06.377Z,6.70
2022-09-10T02:42:34.180Z,6.82
2022-09-10T02:45:01.852Z,8.48
2022-09-10T02:47:30.147Z,6.30
2022-09-10T02:49:57.928Z,8.38
2022-09-10T02:52:27.138Z,8.60
2022-09-10T02:54:54.809Z,6.05
2022-09-10T02:57:22.423Z,6.30
2022-09-10T02:59:50.046Z,5.65
2022-09-10T03:02:17.771Z,10.05
2022-09-10T03:04:45.434Z,7.00
2022-09-10T03:07:17.099Z,11.43
2022-09-10T03:09:46.102Z,6.28
2022-09-10T03:12:13.766Z,8.52
2022-09-10T03:14:41.564Z,10.75
2022-09-10T03:17:09.607Z,9.07
2022-09-10T03:19:37.276Z,6.13
2022-09-10T03:22:05.077Z,8.90
2022-09-10T03:24:32.846Z,12.10
2022-09-10T03:27:01.907Z,9.35
2022-09-10T03:29:30.182Z,8.40
2022-09-10T03:31:57.846Z,8.40
2022-09-10T03:34:28.218Z,8.40
2022-09-10T03:36:55.888Z,7.20
2022-09-10T03:39:23.714Z,11.65
2022-09-10T03:41:51.344Z,7.45
2022-09-10T03:44:21.612Z,12.10
2022-09-10T03:46:51.177Z,8.77
2022-09-10T03:49:18.770Z,10.63
2022-09-10T03:51:48.264Z,10.50
2022-09-10T03:54:16.079Z,10.18
2022-09-10T03:56:45.526Z,8.45
2022-09-10T03:59:13.464Z,8.65
2022-09-10T04:01:42.678Z,8.13
2022-09-10T04:04:10.721Z,6.72
2022-09-10T04:06:41.074Z,8.18
2022-09-10T04:09:09.428Z,9.70
2022-09-10T04:11:40.464Z,8.80
2022-09-10T04:14:08.066Z,6.50
2022-09-10T04:16:36.017Z,13.05
2022-09-10T04:19:05.048Z,6.00
2022-09-10T04:21:34.590Z,8.25
2022-09-10T04:24:03.214Z,7.65
2022-09-10T04:26:30.792Z,10.93
2022-09-10T04:28:58.531Z,8.05
2022-09-10T04:31:26.506Z,7.25
2022-09-10T04:33:54.434Z,8.73
2022-09-10T04:36:23.652Z,8.63
2022-09-10T04:38:51.358Z,6.60
2022-09-10T04:41:19.589Z,7.45
2022-09-10T04:43:47.258Z,6.72
2022-09-10T04:46:14.847Z,9.93
2022-09-10T04:48:42.556Z,5.80
2022-09-10T04:51:17.700Z,8.77
2022-09-10T04:53:47.187Z,8.30
2022-09-10T04:56:15.265Z,7.95
2022-09-10T04:58:44.143Z,10.70
2022-09-10T05:01:12.168Z,11.27
2022-09-10T05:03:40.266Z,7.93
2022-09-10T05:06:07.990Z,8.68
2022-09-10T05:08:39.091Z,7.13
2022-09-10T05:11:08.449Z,7.30
2022-09-10T05:13:36.064Z,7.13
2022-09-10T05:16:03.764Z,5.68
2022-09-10T05:18:31.486Z,7.82
2022-09-10T05:21:02.099Z,9.88
2022-09-10T05:23:29.761Z,9.98
2022-09-10T05:25:57.803Z,6.18
2022-09-10T05:28:26.816Z,6.80
2022-09-10T05:30:54.470Z,8.48
2022-09-10T05:33:22.569Z,14.25
2022-09-10T05:35:51.809Z,9.05
2022-09-10T05:38:20.045Z,7.18
2022-09-10T05:40:48.242Z,5.15
2022-09-10T05:43:19.490Z,7.40
2022-09-10T05:45:48.527Z,5.50
2022-09-10T05:48:16.217Z,5.85
2022-09-10T05:50:45.750Z,6.43
2022-09-10T05:53:14.029Z,7.60
2022-09-10T05:55:43.612Z,5.30
2022-09-10T05:58:17.503Z,6.38
2022-09-10T06:00:45.288Z,8.10
2022-09-10T06:03:14.471Z,8.18
2022-09-10T06:05:42.332Z,9.68
2022-09-10T06:08:10.361Z,6.68
2022-09-10T06:10:38.630Z,7.55
2022-09-10T06:13:07.217Z,7.18
2022-09-10T06:15:35.615Z,6.13
2022-09-10T06:18:03.608Z,11.32
2022-09-10T06:20:35.499Z,9.20
2022-09-10T06:23:03.167Z,15.52
2022-09-10T06:25:31.225Z,13.30
2022-09-10T06:27:58.892Z,10.23
2022-09-10T06:30:26.709Z,8.80
2022-09-10T06:32:54.632Z,9.52
2022-09-10T06:35:22.670Z,9.32
2022-09-10T06:37:51.766Z,7.93
2022-09-10T06:40:19.796Z,12.82
2022-09-10T06:42:48.565Z,15.20
2022-09-10T06:45:17.532Z,8.52
2022-09-10T06:48:36.728Z,8.93
2022-09-10T06:50:32.931Z,11.85
2022-09-10T06:53:06.256Z,15.40
2022-09-10T06:55:36.097Z,11.52
2022-09-10T06:58:04.235Z,9.40
2022-09-10T07:00:32.475Z,8.88
2022-09-10T07:03:07.190Z,9.20
2022-09-10T07:05:34.823Z,11.10
2022-09-10T07:08:05.614Z,12.40
2022-09-10T07:10:33.321Z,10.55
2022-09-10T07:13:02.160Z,14.43
2022-09-10T07:15:31.962Z,13.57
2022-09-10T07:17:59.652Z,12.80
2022-09-10T07:20:28.626Z,17.80
2022-09-10T07:22:56.345Z,17.27
2022-09-10T07:25:26.839Z,13.48
2022-09-10T07:27:55.151Z,18.23
2022-09-10T07:30:23.324Z,17.58
2022-09-10T07:32:50.990Z,19.70
2022-09-10T07:35:21.566Z,12.57
2022-09-10T07:37:49.229Z,10.43
2022-09-10T07:40:17.067Z,9.73
2022-09-10T07:42:48.448Z,16.98
2022-09-10T07:45:16.315Z,17.90
2022-09-10T07:47:44.731Z,12.52
2022-09-10T07:50:14.585Z,14.20
2022-09-10T07:52:42.224Z,16.60
2022-09-10T07:55:10.641Z,18.80
2022-09-10T07:57:39.839Z,16.73
2022-09-10T08:00:14.724Z,15.00
2022-09-10T08:02:43.104Z,18.27
2022-09-10T08:05:11.704Z,15.40
2022-09-10T08:07:39.675Z,18.27
2022-09-10T08:10:20.365Z,16.98
2022-09-10T08:12:50.691Z,16.38
2022-09-10T08:15:19.887Z,15.50
2022-09-10T08:17:47.529Z,15.20
2022-09-10T08:20:15.263Z,22.40
2022-09-10T08:22:43.082Z,13.10
2022-09-10T08:25:10.756Z,17.38
2022-09-10T08:27:38.905Z,14.82
2022-09-10T08:30:07.120Z,15.35
2022-09-10T08:32:36.808Z,16.10
2022-09-10T08:35:05.929Z,12.85
2022-09-10T08:37:34.270Z,13.93
2022-09-10T08:40:01.933Z,19.85
2022-09-10T08:42:33.330Z,21.35
2022-09-10T08:45:04.349Z,13.88
2022-09-10T08:47:56.288Z,14.60
2022-09-10T08:50:27.309Z,11.68
2022-09-10T08:52:56.921Z,15.85
2022-09-10T08:55:26.438Z,18.88
2022-09-10T08:57:56.599Z,21.73
2022-09-10T09:00:25.474Z,14.27
2022-09-10T09:02:56.564Z,20.40
2022-09-10T09:05:28.830Z,14.48
2022-09-10T09:07:59.633Z,12.98
2022-09-10T09:10:30.306Z,12.07
2022-09-10T09:13:17.962Z,15.05
2022-09-10T09:15:51.793Z,14.30
2022-09-10T09:18:21.753Z,10.30
2022-09-10T09:20:50.741Z,25.23
2022-09-10T09:23:22.537Z,75.15
2022-09-10T09:25:51.351Z,22.90
2022-09-10T09:28:30.022Z,12.02
2022-09-10T09:30:59.883Z,10.10
2022-09-10T09:33:30.583Z,9.98
2022-09-10T09:36:00.182Z,12.85
2022-09-10T09:38:35.039Z,15.00
2022-09-10T09:41:07.966Z,15.23
2022-09-10T09:43:49.794Z,15.32
2022-09-10T09:46:18.610Z,17.65
2022-09-10T09:48:46.493Z,15.73
2022-09-10T09:51:15.583Z,15.35
2022-09-10T09:53:48.365Z,23.20
2022-09-10T09:56:22.467Z,18.20
2022-09-10T09:58:51.012Z,20.13
2022-09-10T10:01:20.731Z,16.83
2022-09-10T10:03:58.803Z,15.45
2022-09-10T10:06:28.559Z,13.75
2022-09-10T10:08:58.963Z,15.38
2022-09-10T10:11:44.485Z,13.85
2022-09-10T10:14:14.864Z,16.42
2022-09-10T10:16:42.619Z,16.48
2022-09-10T10:19:28.087Z,13.60
2022-09-10T10:22:05.448Z,21.10
2022-09-10T10:24:35.124Z,13.70
2022-09-10T10:27:05.091Z,16.02
2022-09-10T10:29:32.822Z,15.10
2022-09-10T10:32:05.454Z,14.52
2022-09-10T10:34:40.992Z,16.08
2022-09-10T10:37:10.657Z,14.60
2022-09-10T10:39:47.157Z,10.80
2022-09-10T10:42:21.203Z,11.45
2022-09-10T10:44:57.048Z,13.95
2022-09-10T10:47:31.605Z,11.57
2022-09-10T10:50:04.252Z,13.30
2022-09-10T10:52:35.399Z,11.77
2022-09-10T10:55:12.713Z,12.05
2022-09-10T10:57:49.847Z,15.73
2022-09-10T11:00:19.032Z,12.60
2022-09-10T11:02:49.778Z,14.25
2022-09-10T11:05:20.331Z,10.88
2022-09-10T11:07:48.287Z,11.52
2022-09-10T11:10:20.136Z,11.68
2022-09-10T11:12:50.532Z,10.00
2022-09-10T11:15:24.039Z,12.10
2022-09-10T11:17:54.311Z,10.33
2022-09-10T11:20:30.249Z,11.60
2022-09-10T11:23:01.607Z,11.85
2022-09-10T11:25:32.067Z,15.52
2022-09-10T11:28:02.371Z,12.88
2022-09-10T11:30:30.461Z,15.88
2022-09-10T11:33:01.224Z,16.63
2022-09-10T11:35:29.714Z,15.50
2022-09-10T11:38:06.224Z,17.83
2022-09-10T11:40:39.271Z,23.13
2022-09-10T11:43:08.563Z,20.67
2022-09-10T11:45:41.197Z,19.83
2022-09-10T11:48:11.583Z,16.88
2022-09-10T11:50:44.892Z,23.80
2022-09-10T11:53:14.868Z,22.52
2022-09-10T11:55:47.571Z,22.67
2022-09-10T11:58:22.580Z,19.45
2022-09-10T12:00:54.644Z,24.95
2022-09-10T12:03:45.032Z,24.98
2022-09-10T12:06:16.308Z,26.20
2022-09-10T12:08:50.085Z,27.42
2022-09-10T12:11:25.137Z,25.40
2022-09-10T12:13:54.053Z,25.50
2022-09-10T12:16:26.822Z,28.55
2022-09-10T12:18:58.895Z,25.10
2022-09-10T12:21:33.710Z,28.27
2022-09-10T12:24:02.449Z,32.10
2022-09-10T12:26:44.958Z,35.15
2022-09-10T12:29:26.931Z,32.67
2022-09-10T12:32:18.551Z,28.55
2022-09-10T12:34:49.903Z,30.40
2022-09-10T12:37:36.018Z,36.05
2022-09-10T12:40:22.226Z,30.65
2022-09-10T12:42:51.903Z,28.45
2022-09-10T12:45:52.745Z,32.80
2022-09-10T12:48:26.888Z,36.78
2022-09-10T12:50:57.046Z,32.15
2022-09-10T12:53:39.200Z,33.60
2022-09-10T12:56:21.909Z,39.65
2022-09-10T12:58:59.521Z,50.33
2022-09-10T13:01:38.320Z,41.90
2022-09-10T13:04:06.337Z,43.25
2022-09-10T13:06:35.978Z,33.35
2022-09-10T13:09:06.233Z,36.80
2022-09-10T13:11:44.098Z,45.65
2022-09-10T13:14:18.856Z,41.40
2022-09-10T13:16:51.711Z,42.50
2022-09-10T13:19:44.054Z,42.35
2022-09-10T13:22:32.439Z,58.35
2022-09-10T13:25:02.211Z,44.63
2022-09-10T13:27:41.010Z,45.50
2022-09-10T13:30:19.149Z,42.35
2022-09-10T13:32:53.249Z,49.08
2022-09-10T13:35:32.696Z,42.63
2022-09-10T13:38:15.055Z,57.38
2022-09-10T13:41:05.816Z,36.58
2022-09-10T13:43:44.837Z,32.03
2022-09-10T13:46:21.645Z,35.63
2022-09-10T13:48:52.822Z,33.83
2022-09-10T13:51:25.831Z,39.55
2022-09-10T13:53:54.106Z,28.77
2022-09-10T13:56:23.333Z,36.90
2022-09-10T13:58:52.320Z,34.38
2022-09-10T14:01:22.210Z,33.08
2022-09-10T14:03:49.973Z,31.02
2022-09-10T14:06:21.710Z,32.97
2022-09-10T14:08:52.439Z,31.50
2022-09-10T14:11:22.181Z,36.67
2022-09-10T14:13:54.209Z,32.65
2022-09-10T14:16:29.493Z,34.58
2022-09-10T14:18:59.397Z,35.53
2022-09-10T14:21:28.138Z,31.30
2022-09-10T14:23:56.902Z,31.10
2022-09-10T14:26:26.460Z,36.42
2022-09-10T14:28:59.041Z,32.15
2022-09-10T14:31:33.524Z,33.13
2022-09-10T14:34:21.529Z,30.27
2022-09-10T14:36:49.700Z,33.50
2022-09-10T14:39:18.184Z,27.20
2022-09-10T14:41:46.133Z,33.10
2022-09-10T14:44:15.314Z,33.10
2022-09-10T14:46:52.597Z,31.95
2022-09-10T14:49:20.798Z,31.25
2022-09-10T14:51:48.497Z,28.95
2022-09-10T14:54:17.296Z,28.10
2022-09-10T14:56:46.462Z,29.75
2022-09-10T14:59:16.265Z,39.22
2022-09-10T15:01:44.662Z,38.45
2022-09-10T15:04:15.833Z,42.85
2022-09-10T15:06:44.693Z,30.13
2022-09-10T15:09:13.114Z,34.22
2022-09-10T15:11:42.711Z,25.40
2022-09-10T15:14:11.710Z,32.60
2022-09-10T15:16:39.476Z,44.70
2022-09-10T15:19:07.145Z,40.03
2022-09-10T15:21:36.158Z,35.50
2022-09-10T15:24:07.077Z,35.47
2022-09-10T15:26:34.685Z,31.00
2022-09-10T15:29:02.299Z,28.77
2022-09-10T15:31:32.731Z,39.55
2022-09-10T15:34:00.660Z,43.55
2022-09-10T15:36:28.395Z,33.22
2022-09-10T15:39:00.325Z,35.30
2022-09-10T15:41:28.000Z,39.85
2022-09-10T15:43:55.694Z,30.63
2022-09-10T15:46:24.616Z,31.63
2022-09-10T15:48:52.623Z,28.70
2022-09-10T15:51:23.353Z,29.95
2022-09-10T15:53:51.654Z,24.65
2022-09-10T15:56:24.281Z,30.45
2022-09-10T15:58:52.961Z,27.77
2022-09-10T16:01:20.599Z,23.10
2022-09-10T16:03:50.174Z,25.08
2022-09-10T16:06:19.480Z,24.65
2022-09-10T16:08:50.822Z,27.02
2022-09-10T16:11:19.214Z,29.88
2022-09-10T16:13:48.429Z,30.35
2022-09-10T16:16:17.988Z,22.02
2022-09-10T16:18:45.900Z,27.67
2022-09-10T16:21:15.647Z,18.60
2022-09-10T16:23:43.933Z,33.50
2022-09-10T16:26:15.869Z,26.90
2022-09-10T16:28:44.346Z,34.80
2022-09-10T16:31:15.450Z,20.50
2022-09-10T16:33:43.683Z,24.92
2022-09-10T16:36:12.654Z,26.33
2022-09-10T16:38:42.801Z,26.73
2022-09-10T16:41:11.849Z,31.52
2022-09-10T16:43:39.725Z,23.70
2022-09-10T16:46:09.365Z,27.02
2022-09-10T16:48:41.653Z,27.88
2022-09-10T16:51:10.518Z,33.05
2022-09-10T16:53:38.834Z,21.77
2022-09-10T16:56:07.651Z,29.23
2022-09-10T16:58:36.232Z,33.20
2022-09-10T17:01:04.059Z,28.23
2022-09-10T17:03:31.939Z,26.85
2022-09-10T17:06:01.024Z,36.78
2022-09-10T17:08:29.363Z,30.98
2022-09-10T17:10:57.605Z,30.88
2022-09-10T17:13:25.270Z,25.90
2022-09-10T17:15:53.360Z,25.60
2022-09-10T17:18:21.192Z,35.42
2022-09-10T17:20:49.392Z,34.28
2022-09-10T17:23:18.892Z,40.58
2022-09-10T17:25:50.511Z,30.70
2022-09-10T17:28:18.210Z,35.75
2022-09-10T17:30:46.233Z,27.80
2022-09-10T17:33:16.390Z,34.20
2022-09-10T17:35:56.522Z,33.22
2022-09-10T17:38:26.115Z,25.05
2022-09-10T17:40:55.181Z,25.25
2022-09-10T17:43:27.188Z,27.50
2022-09-10T17:45:58.439Z,22.98
2022-09-10T17:48:30.225Z,23.17
2022-09-10T17:50:58.303Z,27.67
2022-09-10T17:53:27.397Z,27.23
2022-09-10T17:55:55.361Z,21.95
2022-09-10T17:58:23.579Z,27.23
2022-09-10T18:00:52.816Z,23.55
2022-09-10T18:03:20.859Z,20.98
2022-09-10T18:05:52.050Z,20.92
2022-09-10T18:08:19.916Z,21.45
2022-09-10T18:10:49.749Z,24.55
2022-09-10T18:13:19.614Z,24.50
2022-09-10T18:15:50.886Z,25.70
2022-09-10T18:18:36.612Z,19.15
2022-09-10T18:21:14.839Z,33.95
2022-09-10T18:23:44.404Z,21.65
2022-09-10T18:26:23.741Z,19.15
2022-09-10T18:28:54.888Z,21.30
2022-09-10T18:31:23.324Z,24.90
2022-09-10T18:33:51.509Z,23.98
2022-09-10T18:39:36.584Z,24.13
2022-09-10T18:42:07.021Z,24.70
2022-09-10T18:44:37.113Z,26.35
2022-09-10T18:47:33.985Z,24.88
2022-09-10T18:49:59.659Z,21.98
2022-09-10T18:52:27.507Z,20.83
2022-09-10T18:54:55.374Z,24.75
2022-09-10T18:57:24.771Z,23.85
2022-09-10T18:59:55.481Z,22.30
2022-09-10T19:02:26.921Z,21.40
2022-09-10T19:05:17.801Z,23.67
2022-09-10T19:07:51.706Z,22.60
2022-09-10T19:10:34.601Z,26.20
2022-09-10T19:13:07.843Z,23.83
2022-09-10T19:15:45.169Z,20.05
2022-09-10T19:18:13.171Z,18.98
2022-09-10T19:20:44.703Z,21.23
2022-09-10T19:23:21.886Z,27.17
2022-09-10T19:25:56.348Z,18.65
2022-09-10T19:28:29.315Z,19.73
2022-09-10T19:33:49.477Z,18.33
2022-09-10T19:36:30.891Z,17.48
2022-09-10T19:39:10.444Z,25.55
2022-09-10T19:41:42.813Z,18.02
2022-09-10T19:44:16.088Z,21.70
2022-09-10T19:46:47.063Z,17.67
2022-09-10T19:49:15.247Z,23.15
2022-09-10T19:51:46.609Z,21.85
2022-09-10T19:54:14.809Z,15.30
2022-09-10T19:56:46.527Z,17.63
2022-09-10T19:59:16.474Z,19.60
2022-09-10T20:01:46.281Z,18.70
2022-09-10T20:04:14.487Z,19.05
2022-09-10T20:06:42.717Z,17.25
2022-09-10T20:09:12.433Z,19.27
2022-09-10T20:11:40.938Z,17.75
2022-09-10T20:14:10.217Z,17.92
2022-09-10T20:16:41.805Z,22.77
2022-09-10T20:19:12.895Z,18.25
2022-09-10T20:21:43.779Z,18.42
2022-09-10T20:24:12.882Z,16.50
2022-09-10T20:26:41.311Z,17.10
2022-09-10T20:29:16.387Z,19.00
2022-09-10T20:31:46.379Z,18.13
2022-09-10T20:34:15.050Z,18.42
2022-09-10T20:36:45.427Z,18.77
2022-09-10T20:39:14.647Z,17.35
2022-09-10T20:41:49.863Z,17.05
2022-09-10T20:44:18.239Z,16.00
2022-09-10T20:46:52.485Z,22.63
2022-09-10T20:49:24.672Z,15.82
2022-09-10T20:51:54.389Z,17.58
2022-09-10T20:54:25.180Z,18.25
2022-09-10T20:56:55.101Z,20.20
2022-09-10T20:59:27.987Z,25.02
2022-09-10T21:01:59.533Z,22.70
2022-09-10T21:04:29.684Z,16.40
2022-09-10T21:06:58.898Z,19.60
2022-09-10T21:09:35.029Z,22.70
2022-09-10T21:12:06.198Z,19.90
2022-09-10T21:14:53.046Z,16.75
2022-09-10T21:17:23.880Z,15.48
2022-09-10T21:19:58.799Z,19.13
2022-09-10T21:22:30.663Z,16.42
2022-09-10T21:24:58.259Z,15.93
2022-09-10T21:27:29.371Z,21.58
2022-09-10T21:29:57.084Z,22.60
2022-09-10T21:32:26.111Z,18.33
2022-09-10T21:34:56.882Z,23.80
2022-09-10T21:37:25.451Z,18.30
2022-09-10T21:39:53.082Z,24.23
2022-09-10T21:42:22.106Z,141.80
2022-09-10T21:44:49.716Z,16.30
2022-09-10T21:47:20.366Z,18.20
2022-09-10T21:49:49.787Z,15.05
2022-09-10T21:52:17.405Z,17.67
2022-09-10T21:54:45.105Z,15.90
2022-09-10T21:57:13.125Z,13.38
2022-09-10T21:59:44.838Z,16.50
2022-09-10T22:02:12.536Z,12.57
2022-09-10T22:04:40.337Z,12.18
2022-09-10T22:07:10.400Z,17.15
2022-09-10T22:09:38.188Z,16.48
2022-09-10T22:12:05.875Z,12.05
2022-09-10T22:14:33.652Z,11.68
2022-09-10T22:17:01.391Z,16.50
2022-09-10T22:19:29.487Z,15.65
2022-09-10T22:21:57.524Z,11.45
2022-09-10T22:24:27.093Z,11.32
2022-09-10T22:26:59.807Z,16.77
2022-09-10T22:29:27.669Z,13.93
2022-09-10T22:31:55.625Z,10.27
2022-09-10T22:34:23.334Z,10.80
2022-09-10T22:36:56.915Z,13.90
2022-09-10T22:39:32.645Z,17.00
2022-09-10T22:42:00.340Z,17.50
2022-09-10T22:44:28.246Z,16.85
2022-09-10T22:47:00.126Z,13.32
2022-09-10T22:49:27.743Z,11.98
2022-09-10T22:51:55.455Z,11.77
2022-09-10T22:54:23.166Z,15.50
2022-09-10T22:56:52.260Z,14.90
2022-09-10T22:59:19.890Z,12.43
2022-09-10T23:01:48.421Z,13.52
2022-09-10T23:04:16.359Z,12.48
2022-09-10T23:06:44.113Z,17.23
2022-09-10T23:09:12.966Z,17.90
2022-09-10T23:11:41.161Z,13.90
2022-09-10T23:14:13.055Z,12.30
2022-09-10T23:16:41.743Z,14.65
2022-09-10T23:19:12.085Z,12.27
2022-09-10T23:21:41.479Z,12.52
2022-09-10T23:24:09.342Z,11.18
2022-09-10T23:26:37.270Z,24.25
2022-09-10T23:29:05.831Z,13.07
2022-09-10T23:31:36.657Z,11.73
2022-09-10T23:34:05.992Z,15.35
2022-09-10T23:36:34.346Z,11.88
2022-09-10T23:39:02.652Z,15.90
2022-09-10T23:41:30.933Z,13.45
2022-09-10T23:43:58.637Z,11.70
2022-09-10T23:46:26.483Z,14.23
2022-09-10T23:48:56.781Z,11.85
2022-09-10T23:51:27.181Z,12.38
2022-09-10T23:53:56.030Z,12.55
2022-09-10T23:56:25.684Z,16.33
2022-09-10T23:58:53.638Z,9.77
